sensor_id;sensor_type;location;lat;lon;timestamp;P1;durP1;ratioP1;P2;durP2;ratioP2
7348;SDS011;13010;-33.424;-70.614;2023-04-15T00:02:18;109.07;;;105.30;;
7348;SDS011;13010;-33.424;-70.614;2023-04-15T00:05:06;107.22;;;103.50;;
7348;SDS011;13010;-33.424;-70.614;2023-04-15T00:07:56;110.32;;;106.53;;
7348;SDS011;13010;-33.424;-70.614;2023-04-15T00:10:45;105.15;;;101.55;;
7348;SDS011;13010;-33.424;-70.614;2023-04-15T00:13:33;106.90;;;103.25;;
7348;SDS011;13010;-33.424;-70.614;2023-04-15T00:16:27;106.95;;;103.30;;
7348;SDS011;13010;-33.424;-70.614;2023-04-15T00:19:15;92.55;;;89.32;;
7348;SDS011;13010;-33.424;-70.614;2023-04-15T00:22:04;116.70;;;112.47;;
7348;SDS011;13010;-33.424;-70.614;2023-04-15T00:24:53;126.97;;;122.68;;
7348;SDS011;13010;-33.424;-70.614;2023-04-15T00:27:44;103.35;;;99.75;;
7348;SDS011;13010;-33.424;-70.614;2023-04-15T00:30:33;106.13;;;102.40;;
7348;SDS011;13010;-33.424;-70.614;2023-04-15T00:33:24;93.63;;;90.38;;
7348;SDS011;13010;-33.424;-70.614;2023-04-15T00:36:12;100.22;;;96.75;;
7348;SDS011;13010;-33.424;-70.614;2023-04-15T00:39:01;97.78;;;94.35;;
7348;SDS011;13010;-33.424;-70.614;2023-04-15T00:41:50;107.82;;;103.63;;
7348;SDS011;13010;-33.424;-70.614;2023-04-15T00:44:39;102.25;;;98.72;;
7348;SDS011;13010;-33.424;-70.614;2023-04-15T00:47:28;97.50;;;94.15;;
7348;SDS011;13010;-33.424;-70.614;2023-04-15T00:50:19;99.85;;;96.25;;
7348;SDS011;13010;-33.424;-70.614;2023-04-15T00:53:08;101.78;;;98.25;;
7348;SDS011;13010;-33.424;-70.614;2023-04-15T00:55:57;96.57;;;93.20;;
7348;SDS011;13010;-33.424;-70.614;2023-04-15T00:58:46;101.30;;;97.75;;
7348;SDS011;13010;-33.424;-70.614;2023-04-15T01:01:35;104.57;;;100.72;;
7348;SDS011;13010;-33.424;-70.614;2023-04-15T01:04:24;99.43;;;95.97;;
7348;SDS011;13010;-33.424;-70.614;2023-04-15T01:07:15;98.55;;;95.13;;
7348;SDS011;13010;-33.424;-70.614;2023-04-15T01:10:04;99.80;;;96.35;;
7348;SDS011;13010;-33.424;-70.614;2023-04-15T01:12:53;101.68;;;98.13;;
7348;SDS011;13010;-33.424;-70.614;2023-04-15T01:15:42;90.25;;;87.10;;
7348;SDS011;13010;-33.424;-70.614;2023-04-15T01:18:31;97.05;;;93.63;;
7348;SDS011;13010;-33.424;-70.614;2023-04-15T01:21:21;99.20;;;95.75;;
7348;SDS011;13010;-33.424;-70.614;2023-04-15T01:24:12;90.90;;;87.75;;
7348;SDS011;13010;-33.424;-70.614;2023-04-15T01:27:05;97.53;;;94.13;;
7348;SDS011;13010;-33.424;-70.614;2023-04-15T01:29:57;85.65;;;82.63;;
7348;SDS011;13010;-33.424;-70.614;2023-04-15T01:32:46;88.18;;;85.13;;
7348;SDS011;13010;-33.424;-70.614;2023-04-15T01:35:35;86.78;;;83.70;;
7348;SDS011;13010;-33.424;-70.614;2023-04-15T01:38:24;85.03;;;82.03;;
7348;SDS011;13010;-33.424;-70.614;2023-04-15T01:41:13;91.05;;;87.82;;
7348;SDS011;13010;-33.424;-70.614;2023-04-15T01:44:05;100.18;;;96.10;;
7348;SDS011;13010;-33.424;-70.614;2023-04-15T01:46:54;93.63;;;90.35;;
7348;SDS011;13010;-33.424;-70.614;2023-04-15T01:49:43;89.43;;;86.25;;
7348;SDS011;13010;-33.424;-70.614;2023-04-15T01:52:32;93.90;;;90.57;;
7348;SDS011;13010;-33.424;-70.614;2023-04-15T01:55:21;81.88;;;78.95;;
7348;SDS011;13010;-33.424;-70.614;2023-04-15T01:58:10;87.70;;;84.57;;
7348;SDS011;13010;-33.424;-70.614;2023-04-15T02:01:00;80.20;;;77.38;;
7348;SDS011;13010;-33.424;-70.614;2023-04-15T02:03:49;83.45;;;80.43;;
7348;SDS011;13010;-33.424;-70.614;2023-04-15T02:06:38;80.25;;;77.43;;
7348;SDS011;13010;-33.424;-70.614;2023-04-15T02:09:27;76.85;;;74.05;;
7348;SDS011;13010;-33.424;-70.614;2023-04-15T02:12:17;88.60;;;85.45;;
7348;SDS011;13010;-33.424;-70.614;2023-04-15T02:15:06;81.65;;;78.72;;
7348;SDS011;13010;-33.424;-70.614;2023-04-15T02:18:00;86.10;;;83.00;;
7348;SDS011;13010;-33.424;-70.614;2023-04-15T02:20:50;82.53;;;79.57;;
7348;SDS011;13010;-33.424;-70.614;2023-04-15T02:23:40;95.47;;;92.13;;
7348;SDS011;13010;-33.424;-70.614;2023-04-15T02:26:32;85.82;;;82.43;;
7348;SDS011;13010;-33.424;-70.614;2023-04-15T02:29:21;82.75;;;79.75;;
7348;SDS011;13010;-33.424;-70.614;2023-04-15T02:32:09;74.38;;;71.65;;
7348;SDS011;13010;-33.424;-70.614;2023-04-15T02:35:03;86.30;;;83.25;;
7348;SDS011;13010;-33.424;-70.614;2023-04-15T02:37:52;68.05;;;65.57;;
7348;SDS011;13010;-33.424;-70.614;2023-04-15T02:40:41;81.38;;;78.10;;
7348;SDS011;13010;-33.424;-70.614;2023-04-15T02:43:30;69.72;;;67.18;;
7348;SDS011;13010;-33.424;-70.614;2023-04-15T02:46:18;75.20;;;72.50;;
7348;SDS011;13010;-33.424;-70.614;2023-04-15T02:49:07;73.75;;;71.03;;
7348;SDS011;13010;-33.424;-70.614;2023-04-15T02:51:57;73.32;;;70.70;;
7348;SDS011;13010;-33.424;-70.614;2023-04-15T02:54:46;69.80;;;67.28;;
7348;SDS011;13010;-33.424;-70.614;2023-04-15T02:57:35;71.05;;;68.47;;
7348;SDS011;13010;-33.424;-70.614;2023-04-15T03:00:26;69.05;;;66.40;;
7348;SDS011;13010;-33.424;-70.614;2023-04-15T03:03:15;82.07;;;78.28;;
7348;SDS011;13010;-33.424;-70.614;2023-04-15T03:06:04;72.25;;;69.65;;
7348;SDS011;13010;-33.424;-70.614;2023-04-15T03:08:55;74.28;;;71.55;;
7348;SDS011;13010;-33.424;-70.614;2023-04-15T03:11:44;63.25;;;60.92;;
7348;SDS011;13010;-33.424;-70.614;2023-04-15T03:14:33;75.38;;;72.63;;
7348;SDS011;13010;-33.424;-70.614;2023-04-15T03:17:21;76.22;;;73.45;;
7348;SDS011;13010;-33.424;-70.614;2023-04-15T03:20:10;64.18;;;61.78;;
7348;SDS011;13010;-33.424;-70.614;2023-04-15T03:22:59;62.95;;;60.63;;
7348;SDS011;13010;-33.424;-70.614;2023-04-15T03:25:50;69.55;;;66.70;;
7348;SDS011;13010;-33.424;-70.614;2023-04-15T03:28:40;66.45;;;64.00;;
7348;SDS011;13010;-33.424;-70.614;2023-04-15T03:31:29;57.20;;;55.05;;
7348;SDS011;13010;-33.424;-70.614;2023-04-15T03:34:18;56.65;;;54.53;;
7348;SDS011;13010;-33.424;-70.614;2023-04-15T03:37:06;57.05;;;54.90;;
7348;SDS011;13010;-33.424;-70.614;2023-04-15T03:39:55;59.35;;;57.13;;
7348;SDS011;13010;-33.424;-70.614;2023-04-15T03:42:46;59.38;;;57.17;;
7348;SDS011;13010;-33.424;-70.614;2023-04-15T03:45:35;53.00;;;51.00;;
7348;SDS011;13010;-33.424;-70.614;2023-04-15T03:48:24;52.78;;;50.78;;
7348;SDS011;13010;-33.424;-70.614;2023-04-15T03:51:13;52.67;;;50.65;;
7348;SDS011;13010;-33.424;-70.614;2023-04-15T03:54:01;55.92;;;53.83;;
7348;SDS011;13010;-33.424;-70.614;2023-04-15T03:56:51;47.72;;;45.88;;
7348;SDS011;13010;-33.424;-70.614;2023-04-15T03:59:41;52.55;;;50.55;;
7348;SDS011;13010;-33.424;-70.614;2023-04-15T04:02:29;53.58;;;51.55;;
7348;SDS011;13010;-33.424;-70.614;2023-04-15T04:05:17;55.50;;;53.42;;
7348;SDS011;13010;-33.424;-70.614;2023-04-15T04:08:06;60.03;;;57.78;;
7348;SDS011;13010;-33.424;-70.614;2023-04-15T04:10:57;65.32;;;62.90;;
7348;SDS011;13010;-33.424;-70.614;2023-04-15T04:13:46;64.07;;;61.67;;
7348;SDS011;13010;-33.424;-70.614;2023-04-15T04:16:36;62.25;;;59.90;;
7348;SDS011;13010;-33.424;-70.614;2023-04-15T04:19:25;62.22;;;59.95;;
7348;SDS011;13010;-33.424;-70.614;2023-04-15T04:22:14;64.97;;;62.60;;
7348;SDS011;13010;-33.424;-70.614;2023-04-15T04:25:03;69.55;;;67.00;;
7348;SDS011;13010;-33.424;-70.614;2023-04-15T04:27:52;67.35;;;64.93;;
7348;SDS011;13010;-33.424;-70.614;2023-04-15T04:30:41;68.97;;;66.47;;
7348;SDS011;13010;-33.424;-70.614;2023-04-15T04:33:32;84.55;;;81.55;;
7348;SDS011;13010;-33.424;-70.614;2023-04-15T04:36:21;73.65;;;71.00;;
7348;SDS011;13010;-33.424;-70.614;2023-04-15T04:39:10;81.70;;;78.80;;
7348;SDS011;13010;-33.424;-70.614;2023-04-15T04:41:59;84.95;;;81.93;;
7348;SDS011;13010;-33.424;-70.614;2023-04-15T04:44:47;86.00;;;82.95;;
7348;SDS011;13010;-33.424;-70.614;2023-04-15T04:47:36;76.75;;;73.97;;
7348;SDS011;13010;-33.424;-70.614;2023-04-15T04:50:27;78.53;;;75.70;;
7348;SDS011;13010;-33.424;-70.614;2023-04-15T04:53:16;90.07;;;86.88;;
7348;SDS011;13010;-33.424;-70.614;2023-04-15T04:56:05;77.10;;;74.35;;
7348;SDS011;13010;-33.424;-70.614;2023-04-15T04:58:53;78.65;;;75.88;;
7348;SDS011;13010;-33.424;-70.614;2023-04-15T05:01:42;85.05;;;82.03;;
7348;SDS011;13010;-33.424;-70.614;2023-04-15T05:04:33;77.40;;;74.65;;
7348;SDS011;13010;-33.424;-70.614;2023-04-15T05:07:24;70.15;;;67.63;;
7348;SDS011;13010;-33.424;-70.614;2023-04-15T05:10:13;76.45;;;73.68;;
7348;SDS011;13010;-33.424;-70.614;2023-04-15T05:13:03;82.68;;;79.75;;
7348;SDS011;13010;-33.424;-70.614;2023-04-15T05:15:51;84.47;;;81.47;;
7348;SDS011;13010;-33.424;-70.614;2023-04-15T05:18:40;74.60;;;71.85;;
7348;SDS011;13010;-33.424;-70.614;2023-04-15T05:21:30;75.60;;;72.85;;
7348;SDS011;13010;-33.424;-70.614;2023-04-15T05:24:20;86.07;;;83.03;;
7348;SDS011;13010;-33.424;-70.614;2023-04-15T05:27:09;76.47;;;73.72;;
7348;SDS011;13010;-33.424;-70.614;2023-04-15T05:29:58;79.55;;;76.75;;
7348;SDS011;13010;-33.424;-70.614;2023-04-15T05:32:46;70.60;;;68.05;;
7348;SDS011;13010;-33.424;-70.614;2023-04-15T05:35:37;77.35;;;74.57;;
7348;SDS011;13010;-33.424;-70.614;2023-04-15T05:38:29;83.07;;;80.13;;
7348;SDS011;13010;-33.424;-70.614;2023-04-15T05:41:20;78.85;;;76.07;;
7348;SDS011;13010;-33.424;-70.614;2023-04-15T05:44:09;84.22;;;81.28;;
7348;SDS011;13010;-33.424;-70.614;2023-04-15T05:46:58;86.15;;;83.10;;
7348;SDS011;13010;-33.424;-70.614;2023-04-15T05:49:47;84.47;;;81.50;;
7348;SDS011;13010;-33.424;-70.614;2023-04-15T05:52:35;97.60;;;94.22;;
7348;SDS011;13010;-33.424;-70.614;2023-04-15T05:55:24;93.70;;;90.40;;
7348;SDS011;13010;-33.424;-70.614;2023-04-15T05:58:15;86.85;;;83.78;;
7348;SDS011;13010;-33.424;-70.614;2023-04-15T06:01:03;81.68;;;78.78;;
7348;SDS011;13010;-33.424;-70.614;2023-04-15T06:03:52;88.28;;;85.18;;
7348;SDS011;13010;-33.424;-70.614;2023-04-15T06:06:41;98.10;;;94.70;;
7348;SDS011;13010;-33.424;-70.614;2023-04-15T06:09:30;84.75;;;81.75;;
7348;SDS011;13010;-33.424;-70.614;2023-04-15T06:12:19;82.47;;;79.53;;
7348;SDS011;13010;-33.424;-70.614;2023-04-15T06:15:10;83.22;;;80.25;;
7348;SDS011;13010;-33.424;-70.614;2023-04-15T06:17:59;90.30;;;87.10;;
7348;SDS011;13010;-33.424;-70.614;2023-04-15T06:20:47;83.05;;;80.10;;
7348;SDS011;13010;-33.424;-70.614;2023-04-15T06:23:36;82.35;;;79.45;;
7348;SDS011;13010;-33.424;-70.614;2023-04-15T06:26:26;95.72;;;92.38;;
7348;SDS011;13010;-33.424;-70.614;2023-04-15T06:29:15;95.03;;;91.70;;
7348;SDS011;13010;-33.424;-70.614;2023-04-15T06:32:05;95.13;;;91.80;;
7348;SDS011;13010;-33.424;-70.614;2023-04-15T06:34:54;98.43;;;95.00;;
7348;SDS011;13010;-33.424;-70.614;2023-04-15T06:37:42;90.93;;;87.70;;
7348;SDS011;13010;-33.424;-70.614;2023-04-15T06:40:31;92.00;;;88.75;;
7348;SDS011;13010;-33.424;-70.614;2023-04-15T06:43:20;89.22;;;86.05;;
7348;SDS011;13010;-33.424;-70.614;2023-04-15T06:46:09;76.47;;;73.72;;
7348;SDS011;13010;-33.424;-70.614;2023-04-15T06:48:59;73.40;;;70.65;;
7348;SDS011;13010;-33.424;-70.614;2023-04-15T06:51:49;65.65;;;63.25;;
7348;SDS011;13010;-33.424;-70.614;2023-04-15T06:54:37;63.90;;;61.53;;
7348;SDS011;13010;-33.424;-70.614;2023-04-15T06:57:26;67.80;;;65.35;;
7348;SDS011;13010;-33.424;-70.614;2023-04-15T07:00:14;76.32;;;73.53;;
7348;SDS011;13010;-33.424;-70.614;2023-04-15T07:03:04;63.08;;;60.78;;
7348;SDS011;13010;-33.424;-70.614;2023-04-15T07:05:56;66.13;;;63.67;;
7348;SDS011;13010;-33.424;-70.614;2023-04-15T07:08:45;66.93;;;64.43;;
7348;SDS011;13010;-33.424;-70.614;2023-04-15T07:11:33;61.83;;;59.58;;
7348;SDS011;13010;-33.424;-70.614;2023-04-15T07:14:22;63.78;;;61.42;;
7348;SDS011;13010;-33.424;-70.614;2023-04-15T07:17:11;72.45;;;69.80;;
7348;SDS011;13010;-33.424;-70.614;2023-04-15T07:20:00;77.45;;;74.57;;
7348;SDS011;13010;-33.424;-70.614;2023-04-15T07:22:51;83.28;;;80.30;;
7348;SDS011;13010;-33.424;-70.614;2023-04-15T07:25:40;76.43;;;73.68;;
7348;SDS011;13010;-33.424;-70.614;2023-04-15T07:28:28;79.03;;;76.18;;
7348;SDS011;13010;-33.424;-70.614;2023-04-15T07:31:17;84.45;;;81.45;;
7348;SDS011;13010;-33.424;-70.614;2023-04-15T07:34:06;81.18;;;78.28;;
7348;SDS011;13010;-33.424;-70.614;2023-04-15T07:36:55;96.00;;;92.65;;
7348;SDS011;13010;-33.424;-70.614;2023-04-15T07:39:46;86.53;;;83.45;;
7348;SDS011;13010;-33.424;-70.614;2023-04-15T07:42:36;90.85;;;87.63;;
7348;SDS011;13010;-33.424;-70.614;2023-04-15T07:45:25;86.53;;;83.47;;
7348;SDS011;13010;-33.424;-70.614;2023-04-15T07:48:14;87.00;;;83.88;;
7348;SDS011;13010;-33.424;-70.614;2023-04-15T07:51:03;88.18;;;85.03;;
7348;SDS011;13010;-33.424;-70.614;2023-04-15T07:53:52;83.35;;;80.38;;
7348;SDS011;13010;-33.424;-70.614;2023-04-15T07:56:43;91.38;;;88.15;;
7348;SDS011;13010;-33.424;-70.614;2023-04-15T07:59:31;103.38;;;99.80;;
7348;SDS011;13010;-33.424;-70.614;2023-04-15T08:02:21;96.10;;;92.78;;
7348;SDS011;13010;-33.424;-70.614;2023-04-15T08:05:10;105.93;;;102.28;;
7348;SDS011;13010;-33.424;-70.614;2023-04-15T08:07:59;98.45;;;95.03;;
7348;SDS011;13010;-33.424;-70.614;2023-04-15T08:10:48;93.38;;;90.13;;
7348;SDS011;13010;-33.424;-70.614;2023-04-15T08:13:39;106.10;;;102.45;;
7348;SDS011;13010;-33.424;-70.614;2023-04-15T08:16:28;104.05;;;100.47;;
7348;SDS011;13010;-33.424;-70.614;2023-04-15T08:19:17;106.00;;;102.35;;
7348;SDS011;13010;-33.424;-70.614;2023-04-15T08:22:06;100.07;;;96.57;;
7348;SDS011;13010;-33.424;-70.614;2023-04-15T08:24:56;103.35;;;99.80;;
7348;SDS011;13010;-33.424;-70.614;2023-04-15T08:27:44;102.93;;;99.40;;
7348;SDS011;13010;-33.424;-70.614;2023-04-15T08:30:35;107.47;;;103.80;;
7348;SDS011;13010;-33.424;-70.614;2023-04-15T08:33:24;101.05;;;97.55;;
7348;SDS011;13010;-33.424;-70.614;2023-04-15T08:36:13;106.03;;;102.40;;
7348;SDS011;13010;-33.424;-70.614;2023-04-15T08:39:02;110.50;;;106.72;;
7348;SDS011;13010;-33.424;-70.614;2023-04-15T08:41:54;101.07;;;97.57;;
7348;SDS011;13010;-33.424;-70.614;2023-04-15T08:44:47;105.65;;;102.03;;
7348;SDS011;13010;-33.424;-70.614;2023-04-15T08:47:38;101.43;;;97.93;;
7348;SDS011;13010;-33.424;-70.614;2023-04-15T08:50:29;98.40;;;95.00;;
7348;SDS011;13010;-33.424;-70.614;2023-04-15T08:53:19;108.43;;;104.70;;
7348;SDS011;13010;-33.424;-70.614;2023-04-15T08:56:10;102.35;;;98.80;;
7348;SDS011;13010;-33.424;-70.614;2023-04-15T08:59:01;102.22;;;98.72;;
7348;SDS011;13010;-33.424;-70.614;2023-04-15T09:01:50;87.93;;;84.85;;
7348;SDS011;13010;-33.424;-70.614;2023-04-15T09:04:41;100.38;;;96.93;;
7348;SDS011;13010;-33.424;-70.614;2023-04-15T09:07:30;99.38;;;95.93;;
7348;SDS011;13010;-33.424;-70.614;2023-04-15T09:10:21;103.55;;;100.00;;
7348;SDS011;13010;-33.424;-70.614;2023-04-15T09:13:09;99.45;;;96.03;;
7348;SDS011;13010;-33.424;-70.614;2023-04-15T09:16:00;100.25;;;96.80;;
7348;SDS011;13010;-33.424;-70.614;2023-04-15T09:18:52;87.28;;;84.22;;
7348;SDS011;13010;-33.424;-70.614;2023-04-15T09:21:43;99.47;;;96.05;;
7348;SDS011;13010;-33.424;-70.614;2023-04-15T09:24:35;103.75;;;100.20;;
7348;SDS011;13010;-33.424;-70.614;2023-04-15T09:27:27;101.07;;;97.57;;
7348;SDS011;13010;-33.424;-70.614;2023-04-15T09:30:16;107.22;;;103.57;;
7348;SDS011;13010;-33.424;-70.614;2023-04-15T09:33:05;92.53;;;89.30;;
7348;SDS011;13010;-33.424;-70.614;2023-04-15T09:35:59;97.95;;;94.53;;
7348;SDS011;13010;-33.424;-70.614;2023-04-15T09:38:55;103.28;;;99.70;;
7348;SDS011;13010;-33.424;-70.614;2023-04-15T09:41:45;102.50;;;98.97;;
7348;SDS011;13010;-33.424;-70.614;2023-04-15T09:44:34;99.40;;;95.95;;
7348;SDS011;13010;-33.424;-70.614;2023-04-15T09:47:27;103.15;;;99.57;;
7348;SDS011;13010;-33.424;-70.614;2023-04-15T09:50:16;96.20;;;92.85;;
7348;SDS011;13010;-33.424;-70.614;2023-04-15T09:53:05;98.22;;;94.82;;
7348;SDS011;13010;-33.424;-70.614;2023-04-15T09:55:58;88.32;;;85.22;;
7348;SDS011;13010;-33.424;-70.614;2023-04-15T09:58:55;97.32;;;93.90;;
7348;SDS011;13010;-33.424;-70.614;2023-04-15T10:01:43;133.25;;;125.90;;
7348;SDS011;13010;-33.424;-70.614;2023-04-15T10:04:34;93.43;;;90.13;;
7348;SDS011;13010;-33.424;-70.614;2023-04-15T10:07:26;97.95;;;94.53;;
7348;SDS011;13010;-33.424;-70.614;2023-04-15T10:10:15;91.38;;;88.15;;
7348;SDS011;13010;-33.424;-70.614;2023-04-15T10:13:06;91.47;;;88.25;;
7348;SDS011;13010;-33.424;-70.614;2023-04-15T10:15:56;87.50;;;84.40;;
7348;SDS011;13010;-33.424;-70.614;2023-04-15T10:18:46;97.15;;;93.80;;
7348;SDS011;13010;-33.424;-70.614;2023-04-15T10:21:40;86.50;;;83.45;;
7348;SDS011;13010;-33.424;-70.614;2023-04-15T10:24:29;81.88;;;78.95;;
7348;SDS011;13010;-33.424;-70.614;2023-04-15T10:27:18;87.45;;;84.38;;
7348;SDS011;13010;-33.424;-70.614;2023-04-15T10:30:10;86.00;;;82.95;;
7348;SDS011;13010;-33.424;-70.614;2023-04-15T10:33:02;93.85;;;90.57;;
7348;SDS011;13010;-33.424;-70.614;2023-04-15T10:35:52;104.30;;;100.68;;
7348;SDS011;13010;-33.424;-70.614;2023-04-15T10:38:42;95.57;;;92.22;;
7348;SDS011;13010;-33.424;-70.614;2023-04-15T10:41:31;97.28;;;93.88;;
7348;SDS011;13010;-33.424;-70.614;2023-04-15T10:44:21;96.78;;;93.40;;
7348;SDS011;13010;-33.424;-70.614;2023-04-15T10:47:12;96.10;;;92.72;;
7348;SDS011;13010;-33.424;-70.614;2023-04-15T10:50:02;98.97;;;95.53;;
7348;SDS011;13010;-33.424;-70.614;2023-04-15T10:52:52;101.53;;;97.97;;
7348;SDS011;13010;-33.424;-70.614;2023-04-15T10:55:42;81.90;;;78.97;;
7348;SDS011;13010;-33.424;-70.614;2023-04-15T10:58:37;92.18;;;88.97;;
7348;SDS011;13010;-33.424;-70.614;2023-04-15T11:04:57;73.57;;;70.88;;
7348;SDS011;13010;-33.424;-70.614;2023-04-15T11:07:50;70.32;;;67.78;;
7348;SDS011;13010;-33.424;-70.614;2023-04-15T11:10:52;80.35;;;77.45;;
7348;SDS011;13010;-33.424;-70.614;2023-04-15T11:13:46;65.85;;;63.47;;
7348;SDS011;13010;-33.424;-70.614;2023-04-15T11:16:41;64.68;;;62.28;;
7348;SDS011;13010;-33.424;-70.614;2023-04-15T11:19:39;75.90;;;73.18;;
7348;SDS011;13010;-33.424;-70.614;2023-04-15T11:22:29;64.72;;;62.35;;
7348;SDS011;13010;-33.424;-70.614;2023-04-15T11:25:24;66.30;;;63.90;;
7348;SDS011;13010;-33.424;-70.614;2023-04-15T11:28:14;69.85;;;67.35;;
7348;SDS011;13010;-33.424;-70.614;2023-04-15T11:31:06;68.85;;;66.35;;
7348;SDS011;13010;-33.424;-70.614;2023-04-15T11:33:56;67.75;;;65.28;;
7348;SDS011;13010;-33.424;-70.614;2023-04-15T11:36:46;68.88;;;66.35;;
7348;SDS011;13010;-33.424;-70.614;2023-04-15T11:39:38;66.72;;;64.25;;
7348;SDS011;13010;-33.424;-70.614;2023-04-15T11:42:27;69.22;;;66.70;;
7348;SDS011;13010;-33.424;-70.614;2023-04-15T11:45:16;67.47;;;65.00;;
7348;SDS011;13010;-33.424;-70.614;2023-04-15T11:48:06;82.80;;;79.85;;
7348;SDS011;13010;-33.424;-70.614;2023-04-15T11:50:55;66.95;;;64.53;;
7348;SDS011;13010;-33.424;-70.614;2023-04-15T11:53:44;79.40;;;76.55;;
7348;SDS011;13010;-33.424;-70.614;2023-04-15T11:56:36;86.03;;;82.97;;
7348;SDS011;13010;-33.424;-70.614;2023-04-15T11:59:24;79.07;;;76.25;;
7348;SDS011;13010;-33.424;-70.614;2023-04-15T12:02:13;82.80;;;79.82;;
7348;SDS011;13010;-33.424;-70.614;2023-04-15T12:05:03;86.70;;;83.63;;
7348;SDS011;13010;-33.424;-70.614;2023-04-15T12:07:58;79.38;;;76.53;;
7348;SDS011;13010;-33.424;-70.614;2023-04-15T12:10:47;83.60;;;80.63;;
7348;SDS011;13010;-33.424;-70.614;2023-04-15T12:13:38;94.93;;;91.60;;
7348;SDS011;13010;-33.424;-70.614;2023-04-15T12:16:33;76.75;;;74.00;;
7348;SDS011;13010;-33.424;-70.614;2023-04-15T12:19:23;75.82;;;73.10;;
7348;SDS011;13010;-33.424;-70.614;2023-04-15T12:22:12;87.88;;;84.78;;
7348;SDS011;13010;-33.424;-70.614;2023-04-15T12:25:03;72.18;;;69.57;;
